sensor_id;sensor_type;location;lat;lon;timestamp;P1;durP1;ratioP1;P2;durP2;ratioP2
13785;SDS011;47474;48.824;9.384;2022-11-10T00:02:23;7.13;;;3.30;;
13785;SDS011;47474;48.824;9.384;2022-11-10T00:04:50;2.83;;;2.50;;
13785;SDS011;47474;48.824;9.384;2022-11-10T00:07:16;6.90;;;3.20;;
13785;SDS011;47474;48.824;9.384;2022-11-10T00:09:43;3.33;;;2.63;;
13785;SDS011;47474;48.824;9.384;2022-11-10T00:12:11;6.73;;;3.10;;
13785;SDS011;47474;48.824;9.384;2022-11-10T00:14:37;4.67;;;2.90;;
13785;SDS011;47474;48.824;9.384;2022-11-10T00:17:25;4.47;;;2.40;;
13785;SDS011;47474;48.824;9.384;2022-11-10T00:19:51;3.77;;;2.73;;
13785;SDS011;47474;48.824;9.384;2022-11-10T00:22:18;4.83;;;2.90;;
13785;SDS011;47474;48.824;9.384;2022-11-10T00:24:44;5.03;;;3.30;;
13785;SDS011;47474;48.824;9.384;2022-11-10T00:27:12;4.27;;;3.83;;
13785;SDS011;47474;48.824;9.384;2022-11-10T00:29:39;5.60;;;3.13;;
13785;SDS011;47474;48.824;9.384;2022-11-10T00:32:06;5.83;;;3.53;;
13785;SDS011;47474;48.824;9.384;2022-11-10T00:34:33;4.17;;;3.13;;
13785;SDS011;47474;48.824;9.384;2022-11-10T00:37:00;4.47;;;3.10;;
13785;SDS011;47474;48.824;9.384;2022-11-10T00:39:27;3.57;;;2.53;;
13785;SDS011;47474;48.824;9.384;2022-11-10T00:41:53;6.33;;;2.97;;
13785;SDS011;47474;48.824;9.384;2022-11-10T00:44:21;5.00;;;3.40;;
13785;SDS011;47474;48.824;9.384;2022-11-10T00:46:48;5.33;;;3.00;;
13785;SDS011;47474;48.824;9.384;2022-11-10T00:49:14;3.83;;;3.30;;
13785;SDS011;47474;48.824;9.384;2022-11-10T00:51:41;5.93;;;3.03;;
13785;SDS011;47474;48.824;9.384;2022-11-10T00:54:08;5.50;;;2.60;;
13785;SDS011;47474;48.824;9.384;2022-11-10T00:56:34;4.90;;;3.20;;
13785;SDS011;47474;48.824;9.384;2022-11-10T00:59:01;4.50;;;2.80;;
13785;SDS011;47474;48.824;9.384;2022-11-10T01:01:29;5.00;;;3.07;;
13785;SDS011;47474;48.824;9.384;2022-11-10T01:03:55;5.13;;;2.83;;
13785;SDS011;47474;48.824;9.384;2022-11-10T01:06:22;2.70;;;2.50;;
13785;SDS011;47474;48.824;9.384;2022-11-10T01:08:48;3.20;;;2.63;;
13785;SDS011;47474;48.824;9.384;2022-11-10T01:11:16;5.13;;;2.90;;
13785;SDS011;47474;48.824;9.384;2022-11-10T01:13:44;5.10;;;3.03;;
13785;SDS011;47474;48.824;9.384;2022-11-10T01:16:12;5.60;;;2.90;;
13785;SDS011;47474;48.824;9.384;2022-11-10T01:18:41;3.63;;;2.40;;
13785;SDS011;47474;48.824;9.384;2022-11-10T01:21:08;3.10;;;2.40;;
13785;SDS011;47474;48.824;9.384;2022-11-10T01:23:34;2.70;;;2.50;;
13785;SDS011;47474;48.824;9.384;2022-11-10T01:26:02;3.30;;;2.53;;
13785;SDS011;47474;48.824;9.384;2022-11-10T01:28:30;4.13;;;3.00;;
13785;SDS011;47474;48.824;9.384;2022-11-10T01:30:57;4.77;;;2.63;;
13785;SDS011;47474;48.824;9.384;2022-11-10T01:33:23;3.63;;;2.27;;
13785;SDS011;47474;48.824;9.384;2022-11-10T01:35:51;3.83;;;2.83;;
13785;SDS011;47474;48.824;9.384;2022-11-10T01:38:18;3.63;;;2.70;;
13785;SDS011;47474;48.824;9.384;2022-11-10T01:40:44;3.10;;;2.63;;
13785;SDS011;47474;48.824;9.384;2022-11-10T01:43:11;4.03;;;2.60;;
13785;SDS011;47474;48.824;9.384;2022-11-10T01:45:41;6.73;;;3.13;;
13785;SDS011;47474;48.824;9.384;2022-11-10T01:48:11;4.90;;;3.13;;
13785;SDS011;47474;48.824;9.384;2022-11-10T01:50:41;5.47;;;2.80;;
13785;SDS011;47474;48.824;9.384;2022-11-10T01:53:10;3.10;;;2.57;;
13785;SDS011;47474;48.824;9.384;2022-11-10T01:55:40;5.03;;;3.20;;
13785;SDS011;47474;48.824;9.384;2022-11-10T01:58:08;6.40;;;3.17;;
13785;SDS011;47474;48.824;9.384;2022-11-10T02:00:37;4.70;;;3.10;;
13785;SDS011;47474;48.824;9.384;2022-11-10T02:03:05;3.73;;;3.33;;
13785;SDS011;47474;48.824;9.384;2022-11-10T02:05:35;5.20;;;2.60;;
13785;SDS011;47474;48.824;9.384;2022-11-10T02:08:01;3.07;;;2.43;;
13785;SDS011;47474;48.824;9.384;2022-11-10T02:10:30;4.60;;;2.60;;
13785;SDS011;47474;48.824;9.384;2022-11-10T02:12:56;3.40;;;2.60;;
13785;SDS011;47474;48.824;9.384;2022-11-10T02:15:23;4.40;;;2.63;;
13785;SDS011;47474;48.824;9.384;2022-11-10T02:17:50;3.93;;;2.53;;
13785;SDS011;47474;48.824;9.384;2022-11-10T02:20:17;5.20;;;3.00;;
13785;SDS011;47474;48.824;9.384;2022-11-10T02:22:46;4.40;;;2.57;;
13785;SDS011;47474;48.824;9.384;2022-11-10T02:25:14;5.07;;;2.50;;
13785;SDS011;47474;48.824;9.384;2022-11-10T02:27:41;6.23;;;3.23;;
13785;SDS011;47474;48.824;9.384;2022-11-10T02:30:08;5.27;;;3.70;;
13785;SDS011;47474;48.824;9.384;2022-11-10T02:32:35;6.73;;;4.93;;
13785;SDS011;47474;48.824;9.384;2022-11-10T02:35:02;7.87;;;4.57;;
13785;SDS011;47474;48.824;9.384;2022-11-10T02:37:31;7.47;;;3.43;;
13785;SDS011;47474;48.824;9.384;2022-11-10T02:39:59;4.53;;;2.90;;
13785;SDS011;47474;48.824;9.384;2022-11-10T02:42:28;5.07;;;2.80;;
13785;SDS011;47474;48.824;9.384;2022-11-10T02:44:55;3.17;;;2.30;;
13785;SDS011;47474;48.824;9.384;2022-11-10T02:47:22;6.53;;;2.50;;
13785;SDS011;47474;48.824;9.384;2022-11-10T02:49:48;3.57;;;2.20;;
13785;SDS011;47474;48.824;9.384;2022-11-10T02:52:15;3.50;;;2.20;;
13785;SDS011;47474;48.824;9.384;2022-11-10T02:54:41;6.60;;;2.33;;
13785;SDS011;47474;48.824;9.384;2022-11-10T02:57:09;4.00;;;2.90;;
13785;SDS011;47474;48.824;9.384;2022-11-10T02:59:36;9.53;;;2.93;;
13785;SDS011;47474;48.824;9.384;2022-11-10T03:02:02;3.60;;;2.70;;
13785;SDS011;47474;48.824;9.384;2022-11-10T03:04:29;3.00;;;2.43;;
13785;SDS011;47474;48.824;9.384;2022-11-10T03:06:55;6.17;;;3.33;;
13785;SDS011;47474;48.824;9.384;2022-11-10T03:09:22;3.73;;;2.77;;
13785;SDS011;47474;48.824;9.384;2022-11-10T03:11:49;3.10;;;2.60;;
13785;SDS011;47474;48.824;9.384;2022-11-10T03:14:17;3.17;;;2.87;;
13785;SDS011;47474;48.824;9.384;2022-11-10T03:16:43;3.70;;;2.73;;
13785;SDS011;47474;48.824;9.384;2022-11-10T03:19:10;2.93;;;2.43;;
13785;SDS011;47474;48.824;9.384;2022-11-10T03:21:36;4.27;;;2.93;;
13785;SDS011;47474;48.824;9.384;2022-11-10T03:24:03;3.10;;;2.80;;
13785;SDS011;47474;48.824;9.384;2022-11-10T03:26:30;6.53;;;3.33;;
13785;SDS011;47474;48.824;9.384;2022-11-10T03:28:57;3.83;;;2.77;;
13785;SDS011;47474;48.824;9.384;2022-11-10T03:31:25;4.43;;;3.20;;
13785;SDS011;47474;48.824;9.384;2022-11-10T03:33:51;5.13;;;2.80;;
13785;SDS011;47474;48.824;9.384;2022-11-10T03:36:18;2.67;;;2.47;;
13785;SDS011;47474;48.824;9.384;2022-11-10T03:38:44;4.27;;;2.90;;
13785;SDS011;47474;48.824;9.384;2022-11-10T03:41:11;6.67;;;2.97;;
13785;SDS011;47474;48.824;9.384;2022-11-10T03:43:37;5.37;;;2.97;;
13785;SDS011;47474;48.824;9.384;2022-11-10T03:46:04;5.03;;;2.80;;
13785;SDS011;47474;48.824;9.384;2022-11-10T03:48:32;3.70;;;2.70;;
13785;SDS011;47474;48.824;9.384;2022-11-10T03:50:59;3.87;;;3.10;;
13785;SDS011;47474;48.824;9.384;2022-11-10T03:53:25;4.53;;;3.40;;
13785;SDS011;47474;48.824;9.384;2022-11-10T03:55:52;3.93;;;3.47;;
13785;SDS011;47474;48.824;9.384;2022-11-10T03:58:18;4.57;;;2.97;;
13785;SDS011;47474;48.824;9.384;2022-11-10T04:00:45;5.13;;;4.23;;
13785;SDS011;47474;48.824;9.384;2022-11-10T04:03:11;5.20;;;3.20;;
13785;SDS011;47474;48.824;9.384;2022-11-10T04:05:40;3.80;;;3.07;;
13785;SDS011;47474;48.824;9.384;2022-11-10T04:08:24;4.30;;;3.63;;
13785;SDS011;47474;48.824;9.384;2022-11-10T04:11:08;5.83;;;3.60;;
13785;SDS011;47474;48.824;9.384;2022-11-10T04:13:34;4.67;;;3.40;;
13785;SDS011;47474;48.824;9.384;2022-11-10T04:16:18;6.27;;;3.40;;
13785;SDS011;47474;48.824;9.384;2022-11-10T04:18:45;4.43;;;3.97;;
13785;SDS011;47474;48.824;9.384;2022-11-10T04:21:13;4.43;;;3.70;;
13785;SDS011;47474;48.824;9.384;2022-11-10T04:23:39;4.23;;;3.83;;
13785;SDS011;47474;48.824;9.384;2022-11-10T04:26:07;6.67;;;4.33;;
13785;SDS011;47474;48.824;9.384;2022-11-10T04:28:54;7.07;;;4.53;;
13785;SDS011;47474;48.824;9.384;2022-11-10T04:31:22;9.13;;;4.93;;
13785;SDS011;47474;48.824;9.384;2022-11-10T04:33:50;5.97;;;4.10;;
13785;SDS011;47474;48.824;9.384;2022-11-10T04:36:18;9.27;;;4.50;;
13785;SDS011;47474;48.824;9.384;2022-11-10T04:38:46;6.53;;;3.73;;
13785;SDS011;47474;48.824;9.384;2022-11-10T04:41:12;7.87;;;4.77;;
13785;SDS011;47474;48.824;9.384;2022-11-10T04:43:39;4.70;;;3.80;;
13785;SDS011;47474;48.824;9.384;2022-11-10T04:46:07;5.30;;;4.03;;
13785;SDS011;47474;48.824;9.384;2022-11-10T04:48:38;6.60;;;4.20;;
13785;SDS011;47474;48.824;9.384;2022-11-10T04:51:05;7.33;;;3.60;;
13785;SDS011;47474;48.824;9.384;2022-11-10T04:53:33;6.30;;;3.50;;
13785;SDS011;47474;48.824;9.384;2022-11-10T04:56:00;7.93;;;4.53;;
13785;SDS011;47474;48.824;9.384;2022-11-10T04:58:26;5.03;;;3.50;;
13785;SDS011;47474;48.824;9.384;2022-11-10T05:00:53;6.07;;;3.40;;
13785;SDS011;47474;48.824;9.384;2022-11-10T05:03:19;3.33;;;2.80;;
13785;SDS011;47474;48.824;9.384;2022-11-10T05:05:46;8.50;;;4.40;;
13785;SDS011;47474;48.824;9.384;2022-11-10T05:08:13;5.20;;;3.33;;
13785;SDS011;47474;48.824;9.384;2022-11-10T05:10:42;5.47;;;3.00;;
13785;SDS011;47474;48.824;9.384;2022-11-10T05:13:08;5.47;;;3.50;;
13785;SDS011;47474;48.824;9.384;2022-11-10T05:15:35;4.10;;;3.00;;
13785;SDS011;47474;48.824;9.384;2022-11-10T05:18:05;3.87;;;2.93;;
13785;SDS011;47474;48.824;9.384;2022-11-10T05:20:32;4.50;;;2.97;;
13785;SDS011;47474;48.824;9.384;2022-11-10T05:22:58;3.33;;;2.83;;
13785;SDS011;47474;48.824;9.384;2022-11-10T05:25:44;8.53;;;3.73;;
13785;SDS011;47474;48.824;9.384;2022-11-10T05:28:11;4.53;;;3.37;;
13785;SDS011;47474;48.824;9.384;2022-11-10T05:30:38;6.90;;;3.90;;
13785;SDS011;47474;48.824;9.384;2022-11-10T05:33:05;5.00;;;3.20;;
13785;SDS011;47474;48.824;9.384;2022-11-10T05:35:32;7.17;;;3.17;;
13785;SDS011;47474;48.824;9.384;2022-11-10T05:37:59;6.53;;;4.23;;
13785;SDS011;47474;48.824;9.384;2022-11-10T05:40:25;7.90;;;3.80;;
13785;SDS011;47474;48.824;9.384;2022-11-10T05:42:53;5.77;;;3.33;;
13785;SDS011;47474;48.824;9.384;2022-11-10T05:45:21;4.50;;;3.30;;
13785;SDS011;47474;48.824;9.384;2022-11-10T05:47:48;6.10;;;4.00;;
13785;SDS011;47474;48.824;9.384;2022-11-10T05:50:15;5.53;;;3.37;;
13785;SDS011;47474;48.824;9.384;2022-11-10T05:52:43;6.50;;;3.73;;
13785;SDS011;47474;48.824;9.384;2022-11-10T05:55:11;4.77;;;3.00;;
13785;SDS011;47474;48.824;9.384;2022-11-10T05:57:40;3.40;;;3.00;;
13785;SDS011;47474;48.824;9.384;2022-11-10T06:00:10;9.03;;;4.47;;
13785;SDS011;47474;48.824;9.384;2022-11-10T06:02:37;6.53;;;3.60;;
13785;SDS011;47474;48.824;9.384;2022-11-10T06:05:04;9.10;;;3.50;;
13785;SDS011;47474;48.824;9.384;2022-11-10T06:07:31;5.73;;;3.53;;
13785;SDS011;47474;48.824;9.384;2022-11-10T06:09:58;4.10;;;2.87;;
13785;SDS011;47474;48.824;9.384;2022-11-10T06:12:25;6.03;;;3.30;;
13785;SDS011;47474;48.824;9.384;2022-11-10T06:14:54;5.50;;;2.87;;
13785;SDS011;47474;48.824;9.384;2022-11-10T06:17:22;4.30;;;3.87;;
13785;SDS011;47474;48.824;9.384;2022-11-10T06:19:49;6.47;;;4.17;;
13785;SDS011;47474;48.824;9.384;2022-11-10T06:22:15;6.67;;;4.67;;
13785;SDS011;47474;48.824;9.384;2022-11-10T06:24:42;5.70;;;3.90;;
13785;SDS011;47474;48.824;9.384;2022-11-10T06:27:08;5.47;;;3.70;;
13785;SDS011;47474;48.824;9.384;2022-11-10T06:29:35;5.47;;;3.97;;
13785;SDS011;47474;48.824;9.384;2022-11-10T06:32:01;5.43;;;4.00;;
13785;SDS011;47474;48.824;9.384;2022-11-10T06:34:29;6.20;;;4.23;;
13785;SDS011;47474;48.824;9.384;2022-11-10T06:36:56;4.13;;;3.73;;
13785;SDS011;47474;48.824;9.384;2022-11-10T06:39:22;6.13;;;3.67;;
13785;SDS011;47474;48.824;9.384;2022-11-10T06:41:49;5.17;;;3.70;;
13785;SDS011;47474;48.824;9.384;2022-11-10T06:44:15;4.93;;;3.60;;
13785;SDS011;47474;48.824;9.384;2022-11-10T06:46:42;7.37;;;4.23;;
13785;SDS011;47474;48.824;9.384;2022-11-10T06:49:09;5.50;;;4.00;;
13785;SDS011;47474;48.824;9.384;2022-11-10T06:51:36;5.13;;;4.47;;
13785;SDS011;47474;48.824;9.384;2022-11-10T06:54:03;7.73;;;4.97;;
13785;SDS011;47474;48.824;9.384;2022-11-10T06:56:30;6.93;;;4.73;;
13785;SDS011;47474;48.824;9.384;2022-11-10T06:58:56;6.57;;;4.40;;
13785;SDS011;47474;48.824;9.384;2022-11-10T07:01:23;6.17;;;5.47;;
13785;SDS011;47474;48.824;9.384;2022-11-10T07:03:50;7.37;;;5.40;;
13785;SDS011;47474;48.824;9.384;2022-11-10T07:06:17;6.10;;;4.80;;
13785;SDS011;47474;48.824;9.384;2022-11-10T07:08:45;7.90;;;5.80;;
13785;SDS011;47474;48.824;9.384;2022-11-10T07:11:12;7.97;;;6.47;;
13785;SDS011;47474;48.824;9.384;2022-11-10T07:13:39;11.47;;;5.70;;
13785;SDS011;47474;48.824;9.384;2022-11-10T07:16:05;13.37;;;6.37;;
13785;SDS011;47474;48.824;9.384;2022-11-10T07:18:32;10.07;;;5.83;;
13785;SDS011;47474;48.824;9.384;2022-11-10T07:21:00;10.73;;;6.10;;
13785;SDS011;47474;48.824;9.384;2022-11-10T07:23:27;5.17;;;4.60;;
13785;SDS011;47474;48.824;9.384;2022-11-10T07:25:55;8.53;;;5.50;;
13785;SDS011;47474;48.824;9.384;2022-11-10T07:28:24;9.20;;;5.70;;
13785;SDS011;47474;48.824;9.384;2022-11-10T07:30:50;8.23;;;4.73;;
13785;SDS011;47474;48.824;9.384;2022-11-10T07:33:17;5.27;;;4.30;;
13785;SDS011;47474;48.824;9.384;2022-11-10T07:35:48;5.50;;;4.30;;
13785;SDS011;47474;48.824;9.384;2022-11-10T07:38:16;8.57;;;6.00;;
13785;SDS011;47474;48.824;9.384;2022-11-10T07:40:43;5.63;;;5.00;;
13785;SDS011;47474;48.824;9.384;2022-11-10T07:43:10;6.43;;;4.43;;
13785;SDS011;47474;48.824;9.384;2022-11-10T07:45:37;5.53;;;4.40;;
13785;SDS011;47474;48.824;9.384;2022-11-10T07:48:04;6.57;;;4.70;;
13785;SDS011;47474;48.824;9.384;2022-11-10T07:50:31;5.77;;;5.17;;
13785;SDS011;47474;48.824;9.384;2022-11-10T07:53:02;5.30;;;4.60;;
13785;SDS011;47474;48.824;9.384;2022-11-10T07:55:30;9.97;;;6.00;;
13785;SDS011;47474;48.824;9.384;2022-11-10T07:57:56;7.00;;;4.83;;
13785;SDS011;47474;48.824;9.384;2022-11-10T08:00:25;5.73;;;4.80;;
13785;SDS011;47474;48.824;9.384;2022-11-10T08:02:51;5.47;;;4.20;;
13785;SDS011;47474;48.824;9.384;2022-11-10T08:05:18;8.83;;;5.10;;
13785;SDS011;47474;48.824;9.384;2022-11-10T08:07:44;6.23;;;4.30;;
13785;SDS011;47474;48.824;9.384;2022-11-10T08:10:11;8.93;;;5.10;;
13785;SDS011;47474;48.824;9.384;2022-11-10T08:12:37;5.50;;;4.90;;
13785;SDS011;47474;48.824;9.384;2022-11-10T08:15:04;8.80;;;5.07;;
13785;SDS011;47474;48.824;9.384;2022-11-10T08:17:33;10.07;;;5.60;;
13785;SDS011;47474;48.824;9.384;2022-11-10T08:19:59;9.03;;;5.00;;
13785;SDS011;47474;48.824;9.384;2022-11-10T08:22:26;6.50;;;5.63;;
13785;SDS011;47474;48.824;9.384;2022-11-10T08:24:52;9.43;;;6.27;;
13785;SDS011;47474;48.824;9.384;2022-11-10T08:27:19;8.53;;;6.43;;
13785;SDS011;47474;48.824;9.384;2022-11-10T08:29:45;9.33;;;5.83;;
13785;SDS011;47474;48.824;9.384;2022-11-10T08:32:12;6.57;;;5.33;;
13785;SDS011;47474;48.824;9.384;2022-11-10T08:34:40;7.90;;;6.40;;
13785;SDS011;47474;48.824;9.384;2022-11-10T08:37:06;7.60;;;6.17;;
13785;SDS011;47474;48.824;9.384;2022-11-10T08:39:33;9.53;;;7.13;;
13785;SDS011;47474;48.824;9.384;2022-11-10T08:41:59;7.87;;;6.20;;
13785;SDS011;47474;48.824;9.384;2022-11-10T08:44:26;8.63;;;6.47;;
13785;SDS011;47474;48.824;9.384;2022-11-10T08:46:52;9.23;;;6.57;;
13785;SDS011;47474;48.824;9.384;2022-11-10T08:49:19;7.90;;;6.23;;
13785;SDS011;47474;48.824;9.384;2022-11-10T08:51:47;7.83;;;6.40;;
13785;SDS011;47474;48.824;9.384;2022-11-10T08:54:13;7.03;;;6.33;;
13785;SDS011;47474;48.824;9.384;2022-11-10T08:56:40;8.33;;;6.47;;
13785;SDS011;47474;48.824;9.384;2022-11-10T08:59:06;6.67;;;5.90;;
13785;SDS011;47474;48.824;9.384;2022-11-10T09:01:33;8.73;;;6.87;;
13785;SDS011;47474;48.824;9.384;2022-11-10T09:03:59;6.80;;;6.10;;
13785;SDS011;47474;48.824;9.384;2022-11-10T09:06:26;8.13;;;6.27;;
13785;SDS011;47474;48.824;9.384;2022-11-10T09:08:54;10.47;;;6.37;;
13785;SDS011;47474;48.824;9.384;2022-11-10T09:11:21;6.67;;;5.23;;
13785;SDS011;47474;48.824;9.384;2022-11-10T09:13:47;6.33;;;5.40;;
13785;SDS011;47474;48.824;9.384;2022-11-10T09:16:14;6.60;;;4.37;;
13785;SDS011;47474;48.824;9.384;2022-11-10T09:18:41;4.67;;;4.07;;
13785;SDS011;47474;48.824;9.384;2022-11-10T09:21:07;4.33;;;3.60;;
13785;SDS011;47474;48.824;9.384;2022-11-10T09:23:36;6.63;;;3.80;;
13785;SDS011;47474;48.824;9.384;2022-11-10T09:26:04;8.23;;;5.17;;
13785;SDS011;47474;48.824;9.384;2022-11-10T09:28:31;5.77;;;4.40;;
13785;SDS011;47474;48.824;9.384;2022-11-10T09:30:57;3.80;;;3.00;;
13785;SDS011;47474;48.824;9.384;2022-11-10T09:33:24;5.73;;;3.07;;
13785;SDS011;47474;48.824;9.384;2022-11-10T09:35:55;6.90;;;3.23;;
13785;SDS011;47474;48.824;9.384;2022-11-10T09:38:22;4.50;;;3.70;;
13785;SDS011;47474;48.824;9.384;2022-11-10T09:40:51;3.40;;;3.10;;
13785;SDS011;47474;48.824;9.384;2022-11-10T09:43:27;3.43;;;3.13;;
13785;SDS011;47474;48.824;9.384;2022-11-10T09:45:59;3.57;;;2.83;;
13785;SDS011;47474;48.824;9.384;2022-11-10T09:48:29;5.03;;;3.13;;
13785;SDS011;47474;48.824;9.384;2022-11-10T09:50:57;4.43;;;3.60;;
13785;SDS011;47474;48.824;9.384;2022-11-10T09:53:25;4.70;;;3.70;;
13785;SDS011;47474;48.824;9.384;2022-11-10T09:55:55;8.33;;;3.67;;
13785;SDS011;47474;48.824;9.384;2022-11-10T09:58:24;4.10;;;3.30;;
13785;SDS011;47474;48.824;9.384;2022-11-10T10:00:58;6.60;;;3.30;;
13785;SDS011;47474;48.824;9.384;2022-11-10T10:03:38;5.37;;;3.40;;
13785;SDS011;47474;48.824;9.384;2022-11-10T10:06:11;4.97;;;3.00;;
13785;SDS011;47474;48.824;9.384;2022-11-10T10:08:43;6.17;;;4.10;;
13785;SDS011;47474;48.824;9.384;2022-11-10T10:11:18;5.50;;;4.07;;
13785;SDS011;47474;48.824;9.384;2022-11-10T10:13:56;6.03;;;4.40;;
13785;SDS011;47474;48.824;9.384;2022-11-10T10:16:31;4.67;;;3.83;;
13785;SDS011;47474;48.824;9.384;2022-11-10T10:19:01;6.93;;;3.60;;
13785;SDS011;47474;48.824;9.384;2022-11-10T10:21:36;4.20;;;3.47;;
13785;SDS011;47474;48.824;9.384;2022-11-10T10:24:07;4.87;;;3.60;;
13785;SDS011;47474;48.824;9.384;2022-11-10T10:26:37;3.23;;;2.60;;
13785;SDS011;47474;48.824;9.384;2022-11-10T10:29:07;4.30;;;3.13;;
13785;SDS011;47474;48.824;9.384;2022-11-10T10:31:37;5.23;;;2.93;;
13785;SDS011;47474;48.824;9.384;2022-11-10T10:34:08;8.90;;;3.40;;
13785;SDS011;47474;48.824;9.384;2022-11-10T10:36:37;2.97;;;2.60;;
13785;SDS011;47474;48.824;9.384;2022-11-10T10:39:04;4.40;;;2.47;;
13785;SDS011;47474;48.824;9.384;2022-11-10T10:41:32;2.90;;;2.43;;
13785;SDS011;47474;48.824;9.384;2022-11-10T10:44:00;5.30;;;2.47;;
13785;SDS011;47474;48.824;9.384;2022-11-10T10:46:29;3.67;;;1.93;;
13785;SDS011;47474;48.824;9.384;2022-11-10T10:49:05;5.03;;;2.20;;
13785;SDS011;47474;48.824;9.384;2022-11-10T10:51:33;2.57;;;1.87;;
13785;SDS011;47474;48.824;9.384;2022-11-10T10:53:59;4.47;;;1.73;;
13785;SDS011;47474;48.824;9.384;2022-11-10T10:56:26;4.70;;;1.80;;
13785;SDS011;47474;48.824;9.384;2022-11-10T10:58:54;3.53;;;2.00;;
13785;SDS011;47474;48.824;9.384;2022-11-10T11:01:24;3.93;;;1.80;;
13785;SDS011;47474;48.824;9.384;2022-11-10T11:03:55;4.63;;;1.70;;
13785;SDS011;47474;48.824;9.384;2022-11-10T11:06:23;2.77;;;1.40;;
13785;SDS011;47474;48.824;9.384;2022-11-10T11:08:52;2.63;;;1.60;;
13785;SDS011;47474;48.824;9.384;2022-11-10T11:11:24;9.97;;;1.90;;
13785;SDS011;47474;48.824;9.384;2022-11-10T11:13:52;1.73;;;1.20;;
13785;SDS011;47474;48.824;9.384;2022-11-10T11:16:18;5.60;;;1.70;;
13785;SDS011;47474;48.824;9.384;2022-11-10T11:18:45;2.00;;;1.20;;
13785;SDS011;47474;48.824;9.384;2022-11-10T11:21:16;2.30;;;1.37;;
13785;SDS011;47474;48.824;9.384;2022-11-10T11:24:02;3.00;;;1.50;;
13785;SDS011;47474;48.824;9.384;2022-11-10T11:26:37;3.57;;;1.80;;
13785;SDS011;47474;48.824;9.384;2022-11-10T11:29:13;3.80;;;1.57;;
13785;SDS011;47474;48.824;9.384;2022-11-10T11:31:47;5.80;;;1.53;;
13785;SDS011;47474;48.824;9.384;2022-11-10T11:34:21;2.80;;;1.60;;
13785;SDS011;47474;48.824;9.384;2022-11-10T11:36:54;3.40;;;1.85;;
13785;SDS011;47474;48.824;9.384;2022-11-10T11:39:28;4.05;;;1.70;;
13785;SDS011;47474;48.824;9.384;2022-11-10T11:42:03;5.10;;;2.25;;
13785;SDS011;47474;48.824;9.384;2022-11-10T11:44:37;3.30;;;1.60;;
13785;SDS011;47474;48.824;9.384;2022-11-10T11:47:12;3.83;;;1.30;;
13785;SDS011;47474;48.824;9.384;2022-11-10T11:49:51;2.80;;;1.60;;
13785;SDS011;47474;48.824;9.384;2022-11-10T11:52:27;5.07;;;1.60;;
13785;SDS011;47474;48.824;9.384;2022-11-10T11:55:05;1.67;;;1.08;;
13785;SDS011;47474;48.824;9.384;2022-11-10T11:57:44;2.72;;;1.50;;
13785;SDS011;47474;48.824;9.384;2022-11-10T12:00:17;4.75;;;1.60;;
13785;SDS011;47474;48.824;9.384;2022-11-10T12:05:41;3.78;;;1.23;;
13785;SDS011;47474;48.824;9.384;2022-11-10T12:08:16;1.77;;;1.20;;
13785;SDS011;47474;48.824;9.384;2022-11-10T12:10:50;3.20;;;1.20;;
13785;SDS011;47474;48.824;9.384;2022-11-10T12:13:28;3.70;;;1.48;;
13785;SDS011;47474;48.824;9.384;2022-11-10T12:16:01;3.10;;;1.20;;
13785;SDS011;47474;48.824;9.384;2022-11-10T12:18:34;3.13;;;1.20;;
13785;SDS011;47474;48.824;9.384;2022-11-10T12:21:05;2.50;;;1.20;;
13785;SDS011;47474;48.824;9.384;2022-11-10T12:23:41;3.65;;;1.20;;
13785;SDS011;47474;48.824;9.384;2022-11-10T12:26:16;2.72;;;1.58;;
13785;SDS011;47474;48.824;9.384;2022-11-10T12:28:48;2.28;;;1.25;;
13785;SDS011;47474;48.824;9.384;2022-11-10T12:31:18;1.95;;;1.10;;
13785;SDS011;47474;48.824;9.384;2022-11-10T12:33:48;2.80;;;1.27;;
13785;SDS011;47474;48.824;9.384;2022-11-10T12:36:17;1.63;;;1.20;;
13785;SDS011;47474;48.824;9.384;2022-11-10T12:38:50;2.40;;;1.30;;
13785;SDS011;47474;48.824;9.384;2022-11-10T12:41:21;2.60;;;1.13;;
13785;SDS011;47474;48.824;9.384;2022-11-10T12:43:54;2.28;;;1.20;;
13785;SDS011;47474;48.824;9.384;2022-11-10T12:46:27;2.55;;;1.45;;
13785;SDS011;47474;48.824;9.384;2022-11-10T12:48:57;2.67;;;1.30;;
13785;SDS011;47474;48.824;9.384;2022-11-10T12:51:31;1.90;;;1.20;;
13785;SDS011;47474;48.824;9.384;2022-11-10T12:54:00;4.05;;;1.38;;
13785;SDS011;47474;48.824;9.384;2022-11-10T12:56:29;3.28;;;1.20;;
13785;SDS011;47474;48.824;9.384;2022-11-10T12:59:14;2.42;;;1.20;;
13785;SDS011;47474;48.824;9.384;2022-11-10T13:01:48;0.77;;;0.73;;
13785;SDS011;47474;48.824;9.384;2022-11-10T13:04:17;2.78;;;1.20;;
13785;SDS011;47474;48.824;9.384;2022-11-10T13:06:46;1.80;;;1.08;;
13785;SDS011;47474;48.824;9.384;2022-11-10T13:09:22;3.80;;;1.58;;
13785;SDS011;47474;48.824;9.384;2022-11-10T13:12:02;2.83;;;1.13;;
13785;SDS011;47474;48.824;9.384;2022-11-10T13:14:31;2.22;;;1.17;;
13785;SDS011;47474;48.824;9.384;2022-11-10T13:16:58;2.42;;;1.20;;
13785;SDS011;47474;48.824;9.384;2022-11-10T13:22:29;4.20;;;1.60;;
13785;SDS011;47474;48.824;9.384;2022-11-10T13:28:03;2.22;;;1.20;;
13785;SDS011;47474;48.824;9.384;2022-11-10T13:30:37;2.47;;;1.13;;
13785;SDS011;47474;48.824;9.384;2022-11-10T13:36:01;1.27;;;0.90;;
13785;SDS011;47474;48.824;9.384;2022-11-10T13:38:34;2.53;;;1.23;;
13785;SDS011;47474;48.824;9.384;2022-11-10T13:43:54;2.70;;;1.27;;
13785;SDS011;47474;48.824;9.384;2022-11-10T13:46:30;3.28;;;1.27;;
13785;SDS011;47474;48.824;9.384;2022-11-10T13:49:09;3.50;;;0.90;;
13785;SDS011;47474;48.824;9.384;2022-11-10T13:51:41;3.88;;;1.17;;
13785;SDS011;47474;48.824;9.384;2022-11-10T13:54:22;6.47;;;3.42;;
13785;SDS011;47474;48.824;9.384;2022-11-10T13:57:03;2.75;;;1.00;;
13785;SDS011;47474;48.824;9.384;2022-11-10T13:59:44;2.45;;;1.02;;
13785;SDS011;47474;48.824;9.384;2022-11-10T14:05:04;2.85;;;0.88;;
13785;SDS011;47474;48.824;9.384;2022-11-10T14:07:34;2.10;;;1.17;;
13785;SDS011;47474;48.824;9.384;2022-11-10T14:10:03;2.30;;;1.10;;
13785;SDS011;47474;48.824;9.384;2022-11-10T14:12:34;4.82;;;1.10;;
13785;SDS011;47474;48.824;9.384;2022-11-10T14:15:04;1.65;;;0.98;;
13785;SDS011;47474;48.824;9.384;2022-11-10T14:17:38;1.45;;;1.00;;
13785;SDS011;47474;48.824;9.384;2022-11-10T14:20:16;0.98;;;0.93;;
13785;SDS011;47474;48.824;9.384;2022-11-10T14:22:46;2.15;;;1.33;;
13785;SDS011;47474;48.824;9.384;2022-11-10T14:25:16;1.88;;;0.95;;
13785;SDS011;47474;48.824;9.384;2022-11-10T14:27:45;3.25;;;1.20;;
13785;SDS011;47474;48.824;9.384;2022-11-10T14:30:21;1.38;;;0.80;;
13785;SDS011;47474;48.824;9.384;2022-11-10T14:32:53;1.67;;;0.98;;
13785;SDS011;47474;48.824;9.384;2022-11-10T14:35:21;2.05;;;0.85;;
13785;SDS011;47474;48.824;9.384;2022-11-10T14:37:48;2.58;;;1.20;;
13785;SDS011;47474;48.824;9.384;2022-11-10T14:40:16;5.38;;;1.10;;
13785;SDS011;47474;48.824;9.384;2022-11-10T14:42:44;1.90;;;1.08;;
13785;SDS011;47474;48.824;9.384;2022-11-10T14:45:13;1.20;;;1.00;;
13785;SDS011;47474;48.824;9.384;2022-11-10T14:47:42;4.13;;;0.80;;
13785;SDS011;47474;48.824;9.384;2022-11-10T14:50:17;2.83;;;0.80;;
13785;SDS011;47474;48.824;9.384;2022-11-10T14:52:46;2.38;;;0.82;;
13785;SDS011;47474;48.824;9.384;2022-11-10T14:55:15;2.35;;;1.00;;
13785;SDS011;47474;48.824;9.384;2022-11-10T14:57:48;2.65;;;0.90;;
13785;SDS011;47474;48.824;9.384;2022-11-10T15:00:16;1.38;;;0.90;;
13785;SDS011;47474;48.824;9.384;2022-11-10T15:02:45;1.45;;;1.00;;
13785;SDS011;47474;48.824;9.384;2022-11-10T15:05:12;1.85;;;1.02;;
13785;SDS011;47474;48.824;9.384;2022-11-10T15:07:40;1.88;;;0.85;;
13785;SDS011;47474;48.824;9.384;2022-11-10T15:10:12;2.22;;;1.20;;
13785;SDS011;47474;48.824;9.384;2022-11-10T15:12:40;1.90;;;1.10;;
13785;SDS011;47474;48.824;9.384;2022-11-10T15:15:15;1.73;;;0.93;;
13785;SDS011;47474;48.824;9.384;2022-11-10T15:17:46;2.72;;;1.40;;